Time;durP1;ratioP1;P1;durP2;ratioP2;P2;SDS_P1;SDS_P2;PMS_P1;PMS_P2;Temp;Humidity;BMP_temperature;BMP_pressure;BME280_temperature;BME280_humidity;BME280_pressure;Samples;Min_cycle;Max_cycle;Signal;HPM_P1;HPM_P2
2021/11/10 00:01:46;;;;;;;17.23;10.25;;;11.40;75.00;;;;;;4992660;28;20065;-83
2021/11/10 00:04:12;;;;;;;17.70;9.82;;;11.30;75.60;;;;;;4992636;28;20446;-83
2021/11/10 00:06:38;;;;;;;15.05;10.23;;;11.20;76.00;;;;;;4991682;28;20503;-83
2021/11/10 00:09:06;;;;;;;17.17;10.38;;;11.10;76.30;;;;;;4992627;28;20483;-82
2021/11/10 00:11:33;;;;;;;14.15;9.45;;;10.80;76.40;;;;;;4992945;28;20050;-82
2021/11/10 00:13:58;;;;;;;15.73;9.88;;;10.80;77.10;;;;;;4992387;28;20028;-82
2021/11/10 00:16:25;;;;;;;18.00;9.68;;;10.80;77.70;;;;;;4992145;28;20121;-82
2021/11/10 00:18:51;;;;;;;14.80;8.90;;;10.80;77.90;;;;;;4992641;28;20061;-82
2021/11/10 00:21:20;;;;;;;20.95;9.77;;;10.80;78.00;;;;;;4991937;28;20444;-82
2021/11/10 00:23:46;;;;;;;16.15;8.95;;;10.80;77.80;;;;;;4976225;28;20029;-82
2021/11/10 00:26:12;;;;;;;17.85;8.57;;;10.90;78.20;;;;;;4973534;28;20031;-84
2021/11/10 00:28:38;;;;;;;13.88;8.70;;;11.10;77.80;;;;;;4991987;28;20034;-82
2021/11/10 00:31:03;;;;;;;16.02;8.63;;;11.00;76.90;;;;;;4992542;28;20030;-83
2021/11/10 00:33:29;;;;;;;15.65;8.07;;;10.90;76.90;;;;;;4991894;28;20593;-84
2021/11/10 00:35:55;;;;;;;16.52;9.25;;;11.10;77.80;;;;;;4988713;28;20022;-83
2021/11/10 00:38:21;;;;;;;13.13;8.45;;;11.10;77.30;;;;;;4991651;28;20042;-83
2021/11/10 00:40:46;;;;;;;16.73;8.95;;;11.20;77.30;;;;;;4991995;28;20034;-84
2021/11/10 00:43:12;;;;;;;15.65;9.13;;;11.10;76.80;;;;;;4974037;28;20030;-83
2021/11/10 00:45:38;;;;;;;14.52;8.20;;;11.10;76.50;;;;;;4975171;28;20108;-84
2021/11/10 00:48:04;;;;;;;14.50;8.30;;;11.10;76.70;;;;;;4991407;28;20487;-84
2021/11/10 00:50:31;;;;;;;15.82;8.27;;;11.00;76.50;;;;;;4981335;28;20515;-83
2021/11/10 00:52:57;;;;;;;16.67;8.57;;;11.00;77.00;;;;;;4987818;28;20078;-84
2021/11/10 00:55:24;;;;;;;13.35;7.97;;;11.10;76.80;;;;;;4974102;28;20498;-83
2021/11/10 00:57:50;;;;;;;13.15;8.30;;;11.10;77.00;;;;;;4991968;28;20022;-82
2021/11/10 01:00:18;;;;;;;13.18;8.60;;;11.20;76.40;;;;;;4991678;28;20030;-83
2021/11/10 01:02:44;;;;;;;16.13;8.38;;;11.10;76.30;;;;;;4992398;28;20447;-83
2021/11/10 01:05:09;;;;;;;15.93;8.95;;;11.10;76.50;;;;;;4991405;28;20034;-83
2021/11/10 01:07:36;;;;;;;13.43;7.85;;;11.10;75.70;;;;;;4969353;28;20039;-83
2021/11/10 01:10:04;;;;;;;14.55;8.05;;;11.00;76.30;;;;;;4980905;28;20030;-83
2021/11/10 01:12:30;;;;;;;15.32;8.38;;;11.00;75.90;;;;;;4991604;28;20077;-82
2021/11/10 01:14:57;;;;;;;14.48;8.90;;;11.00;76.20;;;;;;4992566;28;20058;-83
2021/11/10 01:17:23;;;;;;;15.07;8.75;;;11.00;75.80;;;;;;4991700;28;20117;-83
2021/11/10 01:19:49;;;;;;;12.55;8.32;;;10.90;76.00;;;;;;4991379;28;20069;-83
2021/11/10 01:22:15;;;;;;;14.63;8.52;;;10.90;76.40;;;;;;4990998;28;20030;-83
2021/11/10 01:24:42;;;;;;;11.15;8.07;;;10.90;76.10;;;;;;4991428;28;20545;-83
2021/11/10 01:27:08;;;;;;;15.25;9.55;;;10.90;76.20;;;;;;4991833;28;20038;-81
2021/11/10 01:29:34;;;;;;;17.27;8.82;;;10.90;76.80;;;;;;4991809;28;20440;-82
2021/11/10 01:32:00;;;;;;;17.05;9.25;;;11.00;77.20;;;;;;4991123;28;20050;-82
2021/11/10 01:34:26;;;;;;;15.45;8.65;;;11.00;76.70;;;;;;4985441;28;20031;-83
2021/11/10 01:36:51;;;;;;;15.65;8.93;;;11.00;76.70;;;;;;4991138;28;20071;-82
2021/11/10 01:39:17;;;;;;;16.45;8.68;;;10.90;76.40;;;;;;4989883;28;20404;-83
2021/11/10 01:41:47;;;;;;;14.73;8.43;;;10.80;76.60;;;;;;4991814;28;20518;-82
2021/11/10 01:44:21;;;;;;;12.25;8.18;;;10.80;76.80;;;;;;4986294;28;20382;-82
2021/11/10 01:46:46;;;;;;;13.30;8.20;;;10.60;77.20;;;;;;4991512;28;20164;-83
2021/11/10 01:49:12;;;;;;;14.95;7.65;;;10.50;76.80;;;;;;4991057;28;20497;-82
2021/11/10 01:51:50;;;;;;;14.45;8.30;;;10.20;76.90;;;;;;4990823;28;20038;-83
2021/11/10 01:54:18;;;;;;;14.55;8.32;;;10.20;78.30;;;;;;4991655;28;20037;-83
2021/11/10 01:56:44;;;;;;;12.98;7.80;;;10.20;78.50;;;;;;4991661;28;20080;-83
2021/11/10 01:59:11;;;;;;;15.25;7.22;;;10.30;78.60;;;;;;4978642;28;20403;-83
2021/11/10 02:01:44;;;;;;;10.90;7.07;;;10.30;78.00;;;;;;4990965;28;20038;-83
2021/11/10 02:04:10;;;;;;;10.75;6.70;;;10.40;78.20;;;;;;4991087;28;20030;-83
2021/11/10 02:06:36;;;;;;;11.98;6.68;;;10.60;78.40;;;;;;4991029;28;20494;-83
2021/11/10 02:09:03;;;;;;;11.95;6.80;;;10.70;77.80;;;;;;4991725;28;20194;-83
2021/11/10 02:11:29;;;;;;;13.73;7.00;;;10.70;77.20;;;;;;4991574;28;20057;-82
2021/11/10 02:13:55;;;;;;;11.40;7.50;;;10.70;76.60;;;;;;4991190;28;20022;-81
2021/11/10 02:16:21;;;;;;;11.57;6.45;;;10.70;77.20;;;;;;4991236;28;20494;-81
2021/11/10 02:18:47;;;;;;;12.25;6.47;;;10.80;77.00;;;;;;4990960;28;20029;-82
2021/11/10 02:21:14;;;;;;;12.18;6.50;;;10.90;77.20;;;;;;4990878;28;20045;-82
2021/11/10 02:23:40;;;;;;;13.30;7.03;;;10.90;76.00;;;;;;4989911;28;20030;-82
2021/11/10 02:26:06;;;;;;;9.88;6.07;;;10.90;76.50;;;;;;4990758;28;20038;-82
2021/11/10 02:28:35;;;;;;;12.13;7.00;;;11.00;76.70;;;;;;4991313;28;20023;-83
2021/11/10 02:31:01;;;;;;;11.63;6.50;;;11.00;76.60;;;;;;4994523;28;20483;-82
2021/11/10 02:33:28;;;;;;;12.88;6.40;;;11.00;76.70;;;;;;4994372;28;20041;-82
2021/11/10 02:36:02;;;;;;;13.43;6.10;;;11.00;76.70;;;;;;4977719;28;20038;-83
2021/11/10 02:38:29;;;;;;;11.23;6.15;;;11.10;76.60;;;;;;4992066;28;20050;-82
2021/11/10 02:40:58;;;;;;;13.00;6.57;;;11.10;76.40;;;;;;4994249;28;20483;-82
2021/11/10 02:43:24;;;;;;;9.35;6.32;;;11.20;76.00;;;;;;4988962;28;20064;-83
2021/11/10 02:45:50;;;;;;;13.55;6.38;;;11.10;76.20;;;;;;4975965;28;20034;-81
2021/11/10 02:48:17;;;;;;;11.13;6.10;;;11.10;76.00;;;;;;4993723;28;20088;-82
2021/11/10 02:50:43;;;;;;;10.75;6.18;;;11.00;76.20;;;;;;4993473;28;20109;-81
2021/11/10 02:53:10;;;;;;;11.85;5.97;;;11.10;76.30;;;;;;4993863;28;20066;-81
2021/11/10 02:55:36;;;;;;;11.73;5.75;;;11.10;76.60;;;;;;4993893;28;20041;-82
2021/11/10 02:58:02;;;;;;;10.18;6.07;;;11.10;76.40;;;;;;4988926;28;20027;-81
2021/11/10 03:00:29;;;;;;;12.07;6.97;;;11.00;76.10;;;;;;4993954;28;20077;-81
2021/11/10 03:02:55;;;;;;;10.15;5.80;;;11.00;76.40;;;;;;4994170;28;20030;-82
2021/11/10 03:05:22;;;;;;;10.70;5.80;;;10.90;76.30;;;;;;4993659;28;20084;-83
2021/11/10 03:07:48;;;;;;;11.30;6.38;;;10.90;76.40;;;;;;4993851;28;20022;-81
2021/11/10 03:10:14;;;;;;;10.52;5.88;;;10.90;76.20;;;;;;4977924;28;20080;-82
2021/11/10 03:12:40;;;;;;;11.60;6.10;;;10.90;76.30;;;;;;4994046;28;20533;-81
2021/11/10 03:15:07;;;;;;;10.40;5.70;;;10.80;76.30;;;;;;4994015;28;20030;-82
2021/11/10 03:17:33;;;;;;;9.40;5.88;;;10.80;76.50;;;;;;4993708;28;20113;-81
2021/11/10 03:19:59;;;;;;;9.38;5.57;;;10.80;76.70;;;;;;4993317;28;20113;-81
2021/11/10 03:22:25;;;;;;;10.75;5.90;;;10.80;77.50;;;;;;4993353;28;20100;-82
2021/11/10 03:24:50;;;;;;;12.05;5.78;;;10.80;76.40;;;;;;4993183;28;20050;-82
2021/11/10 03:27:16;;;;;;;10.68;5.80;;;10.80;76.30;;;;;;4993214;28;20026;-82
2021/11/10 03:29:42;;;;;;;10.82;5.80;;;10.70;76.40;;;;;;4994002;28;20438;-82
2021/11/10 03:32:10;;;;;;;11.35;5.65;;;10.70;76.20;;;;;;4992638;28;20049;-82
2021/11/10 03:34:35;;;;;;;8.85;5.90;;;10.50;76.40;;;;;;4993292;28;20118;-81
2021/11/10 03:37:01;;;;;;;11.00;5.82;;;10.50;76.90;;;;;;4993080;28;20518;-81
2021/11/10 03:39:27;;;;;;;10.38;5.47;;;10.50;77.20;;;;;;4993119;28;20469;-81
2021/11/10 03:41:53;;;;;;;14.05;5.70;;;10.50;77.30;;;;;;4992869;28;20061;-81
2021/11/10 03:44:19;;;;;;;13.02;5.90;;;10.50;77.00;;;;;;4992776;28;20031;-83
2021/11/10 03:46:45;;;;;;;8.02;5.32;;;10.50;77.30;;;;;;4992598;28;20376;-82
2021/11/10 03:49:12;;;;;;;10.32;5.72;;;10.50;77.40;;;;;;4992844;28;20043;-82
2021/11/10 03:51:38;;;;;;;12.82;5.65;;;10.50;77.30;;;;;;4992795;28;20049;-83
2021/11/10 03:54:04;;;;;;;11.13;5.18;;;10.50;77.50;;;;;;4993485;28;20019;-83
2021/11/10 03:56:30;;;;;;;10.13;5.22;;;10.60;77.00;;;;;;4993276;28;20044;-82
2021/11/10 03:58:55;;;;;;;12.30;5.88;;;10.60;77.10;;;;;;4992861;28;20537;-83
2021/11/10 04:01:21;;;;;;;11.27;5.07;;;10.50;76.60;;;;;;4986948;28;20395;-83
2021/11/10 04:03:48;;;;;;;9.32;5.60;;;10.40;76.30;;;;;;4993267;28;20030;-83
2021/11/10 04:06:14;;;;;;;11.55;5.85;;;10.40;77.20;;;;;;4975321;28;20038;-83
2021/11/10 04:08:39;;;;;;;8.90;5.20;;;10.30;76.80;;;;;;4993476;28;20026;-84
2021/11/10 04:11:05;;;;;;;11.50;5.15;;;10.30;78.20;;;;;;4993029;28;20038;-84
2021/11/10 04:13:32;;;;;;;9.52;5.15;;;10.30;77.00;;;;;;4987077;28;20546;-84
2021/11/10 04:15:58;;;;;;;8.20;5.28;;;10.20;76.90;;;;;;4980775;28;20019;-84
2021/11/10 04:18:24;;;;;;;12.75;5.68;;;10.20;76.80;;;;;;4992352;28;20021;-84
2021/11/10 04:20:50;;;;;;;11.40;5.68;;;10.20;76.90;;;;;;4976117;28;20243;-84
2021/11/10 04:23:16;;;;;;;8.25;5.30;;;10.10;76.70;;;;;;4992193;28;20042;-84
2021/11/10 04:25:41;;;;;;;10.98;5.55;;;10.10;76.90;;;;;;4992610;28;20045;-84
2021/11/10 04:28:07;;;;;;;8.98;5.13;;;10.10;77.20;;;;;;4992195;28;20458;-84
2021/11/10 04:30:34;;;;;;;11.60;6.05;;;10.00;77.10;;;;;;4988341;28;20034;-83
2021/11/10 04:32:59;;;;;;;14.35;6.20;;;9.90;76.40;;;;;;4987871;28;20498;-83
2021/11/10 04:35:25;;;;;;;11.10;6.40;;;9.80;77.40;;;;;;4992522;28;20026;-83
2021/11/10 04:37:51;;;;;;;13.40;6.80;;;9.70;78.10;;;;;;4992165;28;20109;-82
2021/11/10 04:40:16;;;;;;;13.35;6.05;;;9.70;77.90;;;;;;4992292;28;20042;-83
2021/11/10 04:42:42;;;;;;;9.90;5.80;;;9.70;78.70;;;;;;4990931;28;20026;-82
2021/11/10 04:45:14;;;;;;;11.95;6.07;;;9.70;78.50;;;;;;4991772;28;20034;-80
2021/11/10 04:47:40;;;;;;;11.52;6.03;;;9.70;78.50;;;;;;4991334;28;20036;-81
2021/11/10 04:50:07;;;;;;;9.32;5.30;;;9.80;78.40;;;;;;4992136;28;20117;-81
2021/11/10 04:52:34;;;;;;;10.82;5.70;;;9.80;78.30;;;;;;4991764;28;20100;-81
2021/11/10 04:55:00;;;;;;;11.32;5.57;;;9.80;77.90;;;;;;4992194;28;20034;-82
2021/11/10 04:57:26;;;;;;;10.35;5.80;;;9.80;79.30;;;;;;4959545;28;20037;-82
2021/11/10 04:59:52;;;;;;;10.38;5.28;;;9.70;78.00;;;;;;4992531;28;20580;-81
2021/11/10 05:04:43;;;;;;;11.18;5.68;;;9.80;78.10;;;;;;4991868;28;20042;-81
2021/11/10 05:07:13;;;;;;;10.18;5.30;;;9.80;78.00;;;;;;4992136;28;20053;-80
2021/11/10 05:09:39;;;;;;;11.52;5.80;;;9.80;78.00;;;;;;4991960;28;20434;-81
2021/11/10 05:12:05;;;;;;;8.57;5.55;;;9.90;77.80;;;;;;4974616;28;20494;-82
2021/11/10 05:14:31;;;;;;;13.65;5.85;;;9.80;77.80;;;;;;4991101;28;20508;-81
2021/11/10 05:16:56;;;;;;;10.35;5.45;;;9.70;77.40;;;;;;4992435;28;20153;-82
2021/11/10 05:19:22;;;;;;;11.50;5.63;;;9.60;77.90;;;;;;4993435;28;20037;-81
2021/11/10 05:21:48;;;;;;;10.05;5.80;;;9.60;78.30;;;;;;4992713;28;20060;-80
2021/11/10 05:24:15;;;;;;;10.07;5.57;;;9.70;78.30;;;;;;4993327;28;20019;-82
2021/11/10 05:26:40;;;;;;;9.57;5.63;;;9.70;77.90;;;;;;4993885;28;20041;-81
2021/11/10 05:29:07;;;;;;;13.70;6.40;;;9.70;77.90;;;;;;4994165;28;20490;-81
2021/11/10 05:31:33;;;;;;;9.45;5.45;;;9.50;77.50;;;;;;4993257;28;20046;-82
2021/11/10 05:33:59;;;;;;;11.73;5.88;;;9.50;78.20;;;;;;4992975;28;20047;-81
2021/11/10 05:36:26;;;;;;;12.32;6.18;;;9.50;78.40;;;;;;4991017;28;20045;-82
2021/11/10 05:38:51;;;;;;;9.57;5.00;;;9.50;78.60;;;;;;4995388;28;20817;-81
2021/11/10 05:41:17;;;;;;;9.75;5.38;;;9.50;78.20;;;;;;4985876;28;20026;-82
2021/11/10 05:43:43;;;;;;;9.35;5.40;;;9.50;78.40;;;;;;4992617;28;20022;-81
2021/11/10 05:46:09;;;;;;;10.27;5.22;;;9.50;78.20;;;;;;4975063;28;20100;-82
2021/11/10 05:48:35;;;;;;;15.98;5.75;;;9.60;78.80;;;;;;4995638;28;20181;-82
2021/11/10 05:51:02;;;;;;;9.70;5.55;;;9.60;78.60;;;;;;4976158;28;20034;-82
2021/11/10 05:53:29;;;;;;;13.13;5.65;;;9.60;78.10;;;;;;4991736;28;20037;-82
2021/11/10 05:55:56;;;;;;;9.68;5.22;;;9.50;77.90;;;;;;4982887;28;20538;-82
2021/11/10 05:58:23;;;;;;;8.77;5.13;;;9.50;78.00;;;;;;4982793;28;20058;-82
2021/11/10 06:00:50;;;;;;;10.25;5.40;;;9.50;78.00;;;;;;4986795;28;20767;-83
2021/11/10 06:03:16;;;;;;;14.98;7.03;;;9.50;78.50;;;;;;4972508;28;20090;-82
2021/11/10 06:05:42;;;;;;;10.38;5.40;;;9.60;78.40;;;;;;4994644;28;20069;-82
2021/11/10 06:08:07;;;;;;;9.27;4.90;;;9.50;77.90;;;;;;4995094;28;20427;-82
2021/11/10 06:10:33;;;;;;;11.40;5.63;;;9.50;77.80;;;;;;4973711;28;20023;-81
2021/11/10 06:12:59;;;;;;;11.18;5.90;;;9.50;77.70;;;;;;4983446;28;20065;-82
2021/11/10 06:15:24;;;;;;;7.97;5.45;;;9.40;78.10;;;;;;4994874;28;20560;-82
2021/11/10 06:17:50;;;;;;;10.82;5.50;;;9.40;77.80;;;;;;4995376;28;20455;-82
2021/11/10 06:20:16;;;;;;;10.68;5.90;;;9.30;77.50;;;;;;4994719;28;20027;-82
2021/11/10 06:22:43;;;;;;;10.18;5.93;;;9.20;78.40;;;;;;4987642;28;20399;-82
2021/11/10 06:25:10;;;;;;;14.77;7.15;;;9.20;78.30;;;;;;4983222;28;20022;-82
2021/11/10 06:27:36;;;;;;;13.65;6.60;;;9.20;78.10;;;;;;4994626;28;20034;-83
2021/11/10 06:30:03;;;;;;;11.32;6.47;;;9.10;78.30;;;;;;4994745;28;20031;-83
2021/11/10 06:32:29;;;;;;;11.43;5.95;;;9.00;78.60;;;;;;4994922;28;20034;-81
2021/11/10 06:34:54;;;;;;;13.32;6.20;;;9.00;79.70;;;;;;4994071;28;20041;-83
2021/11/10 06:37:20;;;;;;;10.55;6.30;;;9.00;78.60;;;;;;4994333;28;20045;-82
2021/11/10 06:39:46;;;;;;;10.65;5.97;;;9.00;79.20;;;;;;4994367;28;20073;-82
2021/11/10 06:42:11;;;;;;;11.45;6.15;;;9.10;79.10;;;;;;4994166;28;20061;-83
2021/11/10 06:44:37;;;;;;;10.82;5.50;;;9.10;78.70;;;;;;4995334;28;20483;-82
2021/11/10 06:47:03;;;;;;;9.52;5.55;;;9.20;79.10;;;;;;4993363;28;20023;-82
2021/11/10 06:49:30;;;;;;;11.05;5.45;;;9.20;78.40;;;;;;4994249;28;20033;-82
2021/11/10 06:51:57;;;;;;;10.98;5.03;;;9.20;78.10;;;;;;4994513;28;20038;-83
2021/11/10 06:54:23;;;;;;;10.32;6.07;;;9.20;78.30;;;;;;4993853;28;20019;-82
2021/11/10 06:56:49;;;;;;;10.00;5.72;;;9.20;78.40;;;;;;4977620;28;20073;-82
2021/11/10 06:59:16;;;;;;;9.50;5.72;;;9.20;78.20;;;;;;4993922;28;20040;-82
2021/11/10 07:01:42;;;;;;;10.65;6.20;;;9.20;77.90;;;;;;4994093;28;20030;-82
2021/11/10 07:04:07;;;;;;;12.18;5.90;;;9.10;77.70;;;;;;4993700;28;20030;-82
2021/11/10 07:06:33;;;;;;;12.48;6.25;;;9.00;78.90;;;;;;4993985;28;20038;-82
2021/11/10 07:08:59;;;;;;;10.68;5.47;;;9.00;78.10;;;;;;4994235;28;20395;-82
2021/11/10 07:11:24;;;;;;;12.82;5.60;;;9.00;78.50;;;;;;4993509;28;20549;-83
2021/11/10 07:13:50;;;;;;;10.25;5.38;;;9.10;79.00;;;;;;4993437;28;20065;-83
2021/11/10 07:16:16;;;;;;;11.32;5.60;;;9.20;78.90;;;;;;4992380;28;20026;-84
2021/11/10 07:18:42;;;;;;;10.82;6.07;;;9.20;78.40;;;;;;4993450;28;20494;-83
2021/11/10 07:21:09;;;;;;;12.30;5.63;;;9.20;78.40;;;;;;4976420;28;20121;-82
2021/11/10 07:23:35;;;;;;;9.18;5.55;;;9.30;78.50;;;;;;4993460;28;20019;-80
2021/11/10 07:26:02;;;;;;;9.25;5.38;;;9.30;78.10;;;;;;4993238;28;20030;-81
2021/11/10 07:28:28;;;;;;;8.90;5.25;;;9.30;77.30;;;;;;4987665;28;20023;-80
2021/11/10 07:30:54;;;;;;;10.75;5.32;;;9.30;78.40;;;;;;4992578;28;20572;-82
2021/11/10 07:33:19;;;;;;;10.13;5.18;;;9.50;78.40;;;;;;4993396;28;20084;-79
2021/11/10 07:35:45;;;;;;;12.55;5.20;;;9.60;78.60;;;;;;4993285;28;20490;-81
2021/11/10 07:38:11;;;;;;;8.07;5.10;;;9.70;77.40;;;;;;4992475;28;20034;-81
2021/11/10 07:40:37;;;;;;;11.25;5.82;;;9.80;76.70;;;;;;4987569;28;20034;-82
2021/11/10 07:43:03;;;;;;;10.77;6.10;;;10.00;76.60;;;;;;4975437;28;20034;-82
2021/11/10 07:45:37;;;;;;;11.60;5.55;;;10.20;76.70;;;;;;4993159;28;20494;-83
2021/11/10 07:48:06;;;;;;;9.23;5.35;;;10.60;75.70;;;;;;4989280;28;20030;-83
2021/11/10 07:50:33;;;;;;;9.55;5.00;;;10.80;75.90;;;;;;4993120;28;20025;-83
2021/11/10 07:52:58;;;;;;;10.50;5.53;;;11.10;75.10;;;;;;4991954;28;20522;-83
2021/11/10 07:55:24;;;;;;;12.40;5.15;;;11.20;74.30;;;;;;4992688;28;20027;-83
2021/11/10 07:57:51;;;;;;;10.25;5.30;;;11.40;74.10;;;;;;4992009;28;20039;-82
2021/11/10 08:00:19;;;;;;;11.75;5.53;;;11.70;72.70;;;;;;4981028;28;20396;-82
2021/11/10 08:02:45;;;;;;;12.50;5.22;;;11.80;72.20;;;;;;4993683;28;20022;-83
2021/11/10 08:05:13;;;;;;;10.00;5.55;;;11.80;70.40;;;;;;4988805;28;20066;-81
2021/11/10 08:07:40;;;;;;;11.30;5.43;;;11.90;70.20;;;;;;4973769;28;20030;-83
2021/11/10 08:10:07;;;;;;;10.50;5.28;;;12.00;70.00;;;;;;4991974;28;20026;-83
2021/11/10 08:12:36;;;;;;;8.07;5.10;;;12.10;68.70;;;;;;4992188;28;20042;-84
2021/11/10 08:15:06;;;;;;;10.50;5.40;;;12.30;69.10;;;;;;4992742;28;20081;-82
2021/11/10 08:17:32;;;;;;;8.85;4.82;;;12.50;68.30;;;;;;4993121;28;20094;-83
2021/11/10 08:19:57;;;;;;;11.13;5.32;;;12.60;68.90;;;;;;4967641;28;20404;-84
2021/11/10 08:22:23;;;;;;;11.48;5.57;;;12.70;67.30;;;;;;4984224;28;20449;-85
2021/11/10 08:24:50;;;;;;;11.82;5.40;;;12.90;67.40;;;;;;4974855;28;20030;-86
2021/11/10 08:27:16;;;;;;;10.73;5.28;;;13.20;66.90;;;;;;4992120;28;20196;-86
2021/11/10 08:29:42;;;;;;;10.85;5.68;;;13.40;66.40;;;;;;4975678;28;20022;-86
2021/11/10 08:32:08;;;;;;;10.43;5.60;;;13.60;65.70;;;;;;4987727;28;20506;-86
2021/11/10 08:34:34;;;;;;;9.57;5.50;;;13.80;64.60;;;;;;4986558;28;20026;-82
2021/11/10 08:36:59;;;;;;;8.60;5.10;;;14.00;65.00;;;;;;4985344;28;20405;-82
2021/11/10 08:39:25;;;;;;;8.55;5.43;;;14.40;64.30;;;;;;4984378;28;20042;-83
2021/11/10 08:41:51;;;;;;;9.55;5.45;;;14.60;63.00;;;;;;4992431;28;20030;-83
2021/11/10 08:44:17;;;;;;;12.32;5.70;;;14.70;62.40;;;;;;4991265;28;20088;-84
2021/11/10 08:46:44;;;;;;;10.07;5.25;;;14.70;61.50;;;;;;4983512;28;20104;-85
2021/11/10 08:49:11;;;;;;;13.10;6.25;;;14.70;61.10;;;;;;4975661;28;20552;-84
2021/11/10 08:51:38;;;;;;;9.98;5.82;;;14.60;60.70;;;;;;4985738;28;20026;-79
2021/11/10 08:54:05;;;;;;;11.73;6.07;;;14.30;59.50;;;;;;4984266;28;20034;-77
2021/11/10 08:56:31;;;;;;;11.82;6.05;;;14.00;60.60;;;;;;4991507;28;20054;-79
2021/11/10 08:58:58;;;;;;;13.10;6.70;;;13.70;62.00;;;;;;4976547;28;20084;-79
2021/11/10 09:01:24;;;;;;;14.43;6.97;;;13.60;61.80;;;;;;4984225;28;20018;-76
2021/11/10 09:03:50;;;;;;;12.82;5.97;;;13.60;62.50;;;;;;4966879;28;20027;-76
2021/11/10 09:06:15;;;;;;;12.75;6.97;;;13.40;61.90;;;;;;4972212;28;20030;-79
2021/11/10 09:08:41;;;;;;;9.32;6.28;;;13.50;62.70;;;;;;4985162;28;20160;-78
2021/11/10 09:11:07;;;;;;;13.95;6.60;;;13.50;62.50;;;;;;4978653;28;20120;-76
2021/11/10 09:13:33;;;;;;;10.68;6.45;;;13.50;62.50;;;;;;4977114;28;20098;-72
2021/11/10 09:15:59;;;;;;;10.07;6.45;;;13.50;63.10;;;;;;4972249;28;20442;-74
2021/11/10 09:18:25;;;;;;;11.05;5.90;;;13.50;61.90;;;;;;4955260;28;20394;-72
2021/11/10 09:20:51;;;;;;;11.18;6.18;;;13.40;61.50;;;;;;4969221;28;20035;-71
2021/11/10 09:23:18;;;;;;;12.38;6.22;;;13.70;63.80;;;;;;4953586;28;20039;-71
2021/11/10 09:25:45;;;;;;;12.60;5.93;;;14.10;62.20;;;;;;4980451;28;20420;-71
2021/11/10 09:28:14;;;;;;;10.27;5.50;;;14.00;60.20;;;;;;4975347;28;20106;-71
2021/11/10 09:30:41;;;;;;;11.52;5.85;;;14.00;61.00;;;;;;4974485;28;20026;-70
2021/11/10 09:33:09;;;;;;;10.40;5.70;;;14.20;61.20;;;;;;4972884;28;20042;-70
2021/11/10 09:35:36;;;;;;;11.32;5.53;;;14.50;59.90;;;;;;4973675;28;20070;-70
2021/11/10 09:38:03;;;;;;;13.77;6.13;;;14.70;60.70;;;;;;4982173;28;20027;-71
2021/11/10 09:40:37;;;;;;;11.43;5.78;;;14.50;59.00;;;;;;4982143;28;20054;-71
2021/11/10 09:43:04;;;;;;;10.57;5.38;;;14.60;60.00;;;;;;4984188;28;20546;-72
2021/11/10 09:45:33;;;;;;;9.82;5.82;;;15.00;60.70;;;;;;4989360;28;20308;-70
2021/11/10 09:48:05;;;;;;;9.15;5.35;;;15.30;59.70;;;;;;4977116;28;20059;-70
2021/11/10 09:50:32;;;;;;;12.27;5.97;;;15.50;59.50;;;;;;4977438;28;20035;-71
2021/11/10 09:52:59;;;;;;;10.65;5.93;;;15.40;57.10;;;;;;4976607;28;20042;-70
2021/11/10 09:55:29;;;;;;;9.07;5.57;;;15.40;57.30;;;;;;4958499;28;20037;-70
2021/11/10 09:57:56;;;;;;;9.20;5.72;;;15.50;57.90;;;;;;4972144;28;20061;-70
2021/11/10 10:00:32;;;;;;;10.30;5.40;;;15.70;57.20;;;;;;4975934;28;20053;-71
2021/11/10 10:03:00;;;;;;;7.93;5.10;;;15.90;59.00;;;;;;4973063;28;20031;-71
2021/11/10 10:05:27;;;;;;;9.50;5.72;;;16.30;55.20;;;;;;4976404;28;20054;-71
2021/11/10 10:07:54;;;;;;;7.35;5.07;;;16.30;54.80;;;;;;4975934;28;20033;-71
2021/11/10 10:10:20;;;;;;;7.55;5.30;;;16.50;54.50;;;;;;4976864;28;20055;-71
2021/11/10 10:12:51;;;;;;;11.45;5.18;;;16.70;54.90;;;;;;4987036;28;20042;-72
2021/11/10 10:15:18;;;;;;;8.25;5.35;;;16.90;54.70;;;;;;4975611;28;20035;-71
2021/11/10 10:17:46;;;;;;;7.13;4.53;;;17.20;53.20;;;;;;4978551;28;20054;-71
2021/11/10 10:20:25;;;;;;;10.55;5.45;;;17.30;53.30;;;;;;4958606;28;20034;-71
2021/11/10 10:22:52;;;;;;;9.25;5.25;;;17.50;53.00;;;;;;4981988;28;20031;-71
2021/11/10 10:25:19;;;;;;;9.48;5.53;;;17.40;51.80;;;;;;4957817;28;20027;-72
2021/11/10 10:27:54;;;;;;;8.38;5.05;;;17.60;51.50;;;;;;4970837;28;20580;-72
2021/11/10 10:30:38;;;;;;;7.40;4.38;;;17.70;52.70;;;;;;4960543;28;20038;-79
2021/11/10 10:33:05;;;;;;;;;;;17.80;50.90;;;;;;4991708;28;20479;-79
2021/11/10 10:35:31;;;;;;;9.13;4.97;;;17.80;53.60;;;;;;4994789;28;19932;-79
2021/11/10 10:37:58;;;;;;;9.63;4.68;;;17.80;50.20;;;;;;4994282;28;20490;-79
2021/11/10 10:40:25;;;;;;;8.30;4.97;;;17.90;52.50;;;;;;4994350;28;20035;-73
2021/11/10 10:42:50;;;;;;;9.05;5.72;;;18.10;50.80;;;;;;4994231;28;20030;-74
2021/11/10 10:45:49;;;;;;;10.98;5.32;;;18.00;49.50;;;;;;4994012;28;20089;-74
2021/11/10 10:48:20;;;;;;;10.52;4.97;;;17.90;51.50;;;;;;4978969;28;20038;-74
2021/11/10 10:50:48;;;;;;;7.55;4.35;;;18.00;49.20;;;;;;4994151;28;20026;-69
2021/11/10 10:53:36;;;;;;;8.88;4.97;;;18.00;50.40;;;;;;4994206;28;20073;-75
2021/11/10 10:56:19;;;;;;;9.68;5.47;;;18.20;52.20;;;;;;4987610;28;20412;-75
2021/11/10 10:58:46;;;;;;;;;;;18.30;51.40;;;;;;4989189;28;20027;-74
2021/11/10 11:01:28;;;;;;;8.48;4.97;;;18.50;54.10;;;;;;4987350;28;19958;-73
2021/11/10 11:04:04;;;;;;;6.68;3.80;;;18.70;51.80;;;;;;4981693;28;20033;-73
2021/11/10 11:06:39;;;;;;;8.80;4.20;;;18.90;50.90;;;;;;4991186;28;20030;-73
2021/11/10 11:09:24;;;;;;;7.85;3.92;;;19.10;49.30;;;;;;4979609;28;20030;-72
2021/11/10 11:17:22;;;;;;;9.52;4.60;;;19.70;48.90;;;;;;4990906;28;20066;-71
2021/11/10 11:20:02;;;;;;;7.30;4.18;;;19.60;49.30;;;;;;4993006;28;20027;-71
2021/11/10 11:22:31;;;;;;;6.90;3.75;;;19.70;48.50;;;;;;4985005;28;20057;-72
2021/11/10 11:24:57;;;;;;;6.72;4.03;;;19.70;47.40;;;;;;4994044;28;20027;-71
2021/11/10 11:27:23;;;;;;;5.78;4.13;;;19.80;47.40;;;;;;4992445;28;20521;-71
2021/11/10 11:29:55;;;;;;;7.45;4.45;;;19.70;46.80;;;;;;4989685;28;20030;-71
2021/11/10 11:32:29;;;;;;;7.45;3.85;;;19.50;47.10;;;;;;4993101;28;20038;-71
2021/11/10 11:35:13;;;;;;;8.70;4.10;;;19.50;47.70;;;;;;4992603;28;20072;-72
2021/11/10 11:37:40;;;;;;;7.55;4.10;;;19.30;47.60;;;;;;4992917;28;20061;-71
2021/11/10 11:40:16;;;;;;;6.32;3.72;;;19.40;47.30;;;;;;4989705;28;20117;-72
2021/11/10 11:42:46;;;;;;;6.68;4.00;;;19.40;48.00;;;;;;4993177;28;20030;-70
2021/11/10 11:45:12;;;;;;;6.78;3.63;;;19.40;47.30;;;;;;4990540;28;20034;-70
2021/11/10 11:47:39;;;;;;;7.00;3.40;;;19.50;47.20;;;;;;4969074;28;20033;-70
2021/11/10 11:50:05;;;;;;;6.70;3.33;;;19.40;47.50;;;;;;4989837;28;20037;-73
2021/11/10 11:52:33;;;;;;;7.80;3.95;;;19.40;46.00;;;;;;4992043;28;20383;-71
2021/11/10 11:55:10;;;;;;;6.68;4.00;;;19.40;47.10;;;;;;4987382;28;20053;-71
2021/11/10 11:57:38;;;;;;;7.60;3.38;;;19.40;47.80;;;;;;4977796;28;20031;-71
2021/11/10 12:00:05;;;;;;;7.72;3.15;;;19.30;46.20;;;;;;4992443;28;20041;-72
2021/11/10 12:05:18;;;;;;;8.68;3.50;;;19.40;46.50;;;;;;4503515;23;20100;-73
2021/11/10 12:07:51;;;;;;;6.32;3.63;;;19.20;47.50;;;;;;5016720;28;20026;-74
2021/11/10 12:10:22;;;;;;;10.32;3.90;;;19.40;47.80;;;;;;5008909;28;20018;-74
2021/11/10 12:13:17;;;;;;;7.18;3.67;;;19.50;47.70;;;;;;5014684;28;20085;-74
2021/11/10 12:16:01;;;;;;;9.27;3.97;;;19.50;48.10;;;;;;5009167;28;20572;-73
2021/11/10 12:18:29;;;;;;;;;;;19.70;48.70;;;;;;5012501;28;20034;-74
2021/11/10 12:21:02;;;;;;;7.45;3.53;;;20.00;49.40;;;;;;4998250;28;19913;-74
2021/11/10 12:23:50;;;;;;;7.63;3.60;;;20.20;46.40;;;;;;5008406;28;20030;-74
2021/11/10 12:26:16;;;;;;;6.78;3.47;;;20.10;47.60;;;;;;5010955;28;20104;-73
2021/11/10 12:28:55;;;;;;;7.65;3.30;;;20.30;46.90;;;;;;4993627;28;20034;-73
2021/11/10 12:31:42;;;;;;;8.18;3.60;;;20.90;48.00;;;;;;5009971;28;20030;-74
2021/11/10 12:34:13;;;;;;;10.40;4.80;;;21.50;48.10;;;;;;4994013;28;20062;-74
2021/11/10 12:37:04;;;;;;;7.85;3.90;;;21.10;43.60;;;;;;4993199;28;20033;-73
2021/11/10 12:39:35;;;;;;;8.45;3.53;;;21.40;48.50;;;;;;5014830;28;20068;-74
2021/11/10 12:42:03;;;;;;;7.53;3.38;;;22.80;47.70;;;;;;5009609;28;20104;-73
2021/11/10 12:44:30;;;;;;;6.80;3.50;;;23.40;42.80;;;;;;5010650;28;20071;-75
2021/11/10 12:46:57;;;;;;;8.43;3.22;;;22.40;41.00;;;;;;5008359;28;20033;-74
2021/11/10 12:49:23;;;;;;;6.38;3.05;;;23.40;44.00;;;;;;5008240;28;20023;-72
2021/11/10 12:52:15;;;;;;;5.25;3.20;;;24.90;42.90;;;;;;5010216;28;20393;-73
2021/11/10 12:54:47;;;;;;;6.90;3.53;;;24.20;39.20;;;;;;5008415;28;20033;-72
2021/11/10 12:57:31;;;;;;;9.32;3.30;;;24.90;42.20;;;;;;5005621;28;20403;-72